sensor_id;sensor_type;location;lat;lon;timestamp;P1;durP1;ratioP1;P2;durP2;ratioP2
31182;SDS011;17813;0.000;0.000;2023-10-13T00:01:17;4.33;;;3.93;;
31182;SDS011;17813;0.000;0.000;2023-10-13T00:03:50;6.30;;;4.37;;
31182;SDS011;17813;0.000;0.000;2023-10-13T00:06:25;6.13;;;4.50;;
31182;SDS011;17813;0.000;0.000;2023-10-13T00:08:55;5.30;;;4.37;;
31182;SDS011;17813;0.000;0.000;2023-10-13T00:11:22;4.40;;;4.00;;
31182;SDS011;17813;0.000;0.000;2023-10-13T00:13:55;4.47;;;3.87;;
31182;SDS011;17813;0.000;0.000;2023-10-13T00:16:26;4.73;;;4.10;;
31182;SDS011;17813;0.000;0.000;2023-10-13T00:19:02;4.87;;;4.07;;
31182;SDS011;17813;0.000;0.000;2023-10-13T00:21:38;5.07;;;3.90;;
31182;SDS011;17813;0.000;0.000;2023-10-13T00:24:08;5.03;;;4.53;;
31182;SDS011;17813;0.000;0.000;2023-10-13T00:26:41;5.13;;;4.20;;
31182;SDS011;17813;0.000;0.000;2023-10-13T00:29:12;5.20;;;4.57;;
31182;SDS011;17813;0.000;0.000;2023-10-13T00:31:40;5.93;;;4.67;;
31182;SDS011;17813;0.000;0.000;2023-10-13T00:34:18;5.37;;;4.47;;
31182;SDS011;17813;0.000;0.000;2023-10-13T00:36:53;5.73;;;4.73;;
31182;SDS011;17813;0.000;0.000;2023-10-13T00:39:56;6.27;;;4.70;;
31182;SDS011;17813;0.000;0.000;2023-10-13T00:42:34;6.83;;;5.20;;
31182;SDS011;17813;0.000;0.000;2023-10-13T00:45:19;5.87;;;5.03;;
31182;SDS011;17813;0.000;0.000;2023-10-13T00:47:54;5.03;;;4.53;;
31182;SDS011;17813;0.000;0.000;2023-10-13T00:50:33;5.50;;;4.50;;
31182;SDS011;17813;0.000;0.000;2023-10-13T00:53:06;7.03;;;4.80;;
31182;SDS011;17813;0.000;0.000;2023-10-13T00:55:36;5.07;;;4.57;;
31182;SDS011;17813;0.000;0.000;2023-10-13T00:58:29;6.37;;;4.80;;
31182;SDS011;17813;0.000;0.000;2023-10-13T01:00:56;8.20;;;5.20;;
31182;SDS011;17813;0.000;0.000;2023-10-13T01:04:02;5.20;;;4.70;;
31182;SDS011;17813;0.000;0.000;2023-10-13T01:06:43;6.57;;;4.87;;
31182;SDS011;17813;0.000;0.000;2023-10-13T01:09:16;6.93;;;5.00;;
31182;SDS011;17813;0.000;0.000;2023-10-13T01:11:53;6.57;;;4.63;;
31182;SDS011;17813;0.000;0.000;2023-10-13T01:14:23;6.20;;;4.70;;
31182;SDS011;17813;0.000;0.000;2023-10-13T01:16:56;5.27;;;4.77;;
31182;SDS011;17813;0.000;0.000;2023-10-13T01:19:36;6.13;;;4.70;;
31182;SDS011;17813;0.000;0.000;2023-10-13T01:22:11;5.23;;;4.67;;
31182;SDS011;17813;0.000;0.000;2023-10-13T01:24:40;5.10;;;4.60;;
31182;SDS011;17813;0.000;0.000;2023-10-13T01:27:09;5.60;;;5.10;;
31182;SDS011;17813;0.000;0.000;2023-10-13T01:29:52;5.60;;;4.80;;
31182;SDS011;17813;0.000;0.000;2023-10-13T01:32:28;6.23;;;4.70;;
31182;SDS011;17813;0.000;0.000;2023-10-13T01:34:55;8.20;;;4.90;;
31182;SDS011;17813;0.000;0.000;2023-10-13T01:37:23;6.63;;;5.03;;
31182;SDS011;17813;0.000;0.000;2023-10-13T01:39:50;6.57;;;5.30;;
31182;SDS011;17813;0.000;0.000;2023-10-13T01:42:18;8.37;;;5.43;;
31182;SDS011;17813;0.000;0.000;2023-10-13T01:44:48;7.00;;;5.87;;
31182;SDS011;17813;0.000;0.000;2023-10-13T01:47:17;8.03;;;5.67;;
31182;SDS011;17813;0.000;0.000;2023-10-13T01:49:44;6.47;;;5.17;;
31182;SDS011;17813;0.000;0.000;2023-10-13T01:52:19;6.70;;;6.00;;
31182;SDS011;17813;0.000;0.000;2023-10-13T01:55:04;7.57;;;5.57;;
31182;SDS011;17813;0.000;0.000;2023-10-13T01:57:38;7.27;;;6.00;;
31182;SDS011;17813;0.000;0.000;2023-10-13T02:00:09;6.93;;;6.17;;
31182;SDS011;17813;0.000;0.000;2023-10-13T02:02:49;7.13;;;6.33;;
31182;SDS011;17813;0.000;0.000;2023-10-13T02:05:19;6.83;;;6.13;;
31182;SDS011;17813;0.000;0.000;2023-10-13T02:07:50;7.27;;;6.53;;
31182;SDS011;17813;0.000;0.000;2023-10-13T02:10:22;7.83;;;5.83;;
31182;SDS011;17813;0.000;0.000;2023-10-13T02:13:17;5.80;;;5.27;;
31182;SDS011;17813;0.000;0.000;2023-10-13T02:15:57;7.50;;;6.07;;
31182;SDS011;17813;0.000;0.000;2023-10-13T02:18:29;7.87;;;5.90;;
31182;SDS011;17813;0.000;0.000;2023-10-13T02:21:28;7.13;;;6.20;;
31182;SDS011;17813;0.000;0.000;2023-10-13T02:23:59;6.93;;;6.23;;
31182;SDS011;17813;0.000;0.000;2023-10-13T02:26:32;9.50;;;6.53;;
31182;SDS011;17813;0.000;0.000;2023-10-13T02:29:08;7.70;;;6.70;;
31182;SDS011;17813;0.000;0.000;2023-10-13T02:31:41;8.53;;;6.37;;
31182;SDS011;17813;0.000;0.000;2023-10-13T02:34:22;7.90;;;6.30;;
31182;SDS011;17813;0.000;0.000;2023-10-13T02:36:54;7.87;;;6.70;;
31182;SDS011;17813;0.000;0.000;2023-10-13T02:39:28;8.27;;;6.57;;
31182;SDS011;17813;0.000;0.000;2023-10-13T02:42:23;10.93;;;7.20;;
31182;SDS011;17813;0.000;0.000;2023-10-13T02:44:51;8.00;;;6.57;;
31182;SDS011;17813;0.000;0.000;2023-10-13T02:47:25;8.67;;;6.77;;
31182;SDS011;17813;0.000;0.000;2023-10-13T02:49:53;8.50;;;6.93;;
31182;SDS011;17813;0.000;0.000;2023-10-13T02:52:22;8.13;;;6.77;;
31182;SDS011;17813;0.000;0.000;2023-10-13T02:54:50;7.43;;;6.23;;
31182;SDS011;17813;0.000;0.000;2023-10-13T02:57:19;8.27;;;6.50;;
31182;SDS011;17813;0.000;0.000;2023-10-13T02:59:55;10.23;;;6.30;;
31182;SDS011;17813;0.000;0.000;2023-10-13T03:02:47;10.97;;;7.00;;
31182;SDS011;17813;0.000;0.000;2023-10-13T03:05:35;7.50;;;6.70;;
31182;SDS011;17813;0.000;0.000;2023-10-13T03:08:05;8.20;;;6.77;;
31182;SDS011;17813;0.000;0.000;2023-10-13T03:10:37;9.20;;;6.63;;
31182;SDS011;17813;0.000;0.000;2023-10-13T03:13:12;7.73;;;6.50;;
31182;SDS011;17813;0.000;0.000;2023-10-13T03:15:39;6.63;;;6.03;;
31182;SDS011;17813;0.000;0.000;2023-10-13T03:18:10;8.13;;;6.33;;
31182;SDS011;17813;0.000;0.000;2023-10-13T03:21:02;7.60;;;6.23;;
31182;SDS011;17813;0.000;0.000;2023-10-13T03:23:47;7.57;;;6.40;;
31182;SDS011;17813;0.000;0.000;2023-10-13T03:26:20;8.20;;;6.60;;
31182;SDS011;17813;0.000;0.000;2023-10-13T03:28:51;6.67;;;6.03;;
31182;SDS011;17813;0.000;0.000;2023-10-13T03:31:19;6.00;;;5.40;;
31182;SDS011;17813;0.000;0.000;2023-10-13T03:34:09;7.13;;;5.83;;
31182;SDS011;17813;0.000;0.000;2023-10-13T03:36:40;7.27;;;6.57;;
31182;SDS011;17813;0.000;0.000;2023-10-13T03:39:22;7.30;;;6.60;;
31182;SDS011;17813;0.000;0.000;2023-10-13T03:41:57;7.30;;;6.13;;
31182;SDS011;17813;0.000;0.000;2023-10-13T03:44:25;7.67;;;6.50;;
31182;SDS011;17813;0.000;0.000;2023-10-13T03:47:14;9.13;;;7.00;;
31182;SDS011;17813;0.000;0.000;2023-10-13T03:49:49;7.27;;;6.50;;
31182;SDS011;17813;0.000;0.000;2023-10-13T03:52:23;8.10;;;7.30;;
31182;SDS011;17813;0.000;0.000;2023-10-13T03:54:52;9.67;;;7.40;;
31182;SDS011;17813;0.000;0.000;2023-10-13T03:57:22;10.23;;;7.63;;
31182;SDS011;17813;0.000;0.000;2023-10-13T03:59:58;8.53;;;7.67;;
31182;SDS011;17813;0.000;0.000;2023-10-13T04:02:44;9.80;;;7.70;;
31182;SDS011;17813;0.000;0.000;2023-10-13T04:05:25;8.50;;;7.60;;
31182;SDS011;17813;0.000;0.000;2023-10-13T04:08:18;10.13;;;7.87;;
31182;SDS011;17813;0.000;0.000;2023-10-13T04:10:58;10.57;;;7.70;;
31182;SDS011;17813;0.000;0.000;2023-10-13T04:13:25;9.67;;;8.03;;
31182;SDS011;17813;0.000;0.000;2023-10-13T04:16:11;13.07;;;8.90;;
31182;SDS011;17813;0.000;0.000;2023-10-13T04:19:06;11.17;;;8.40;;
31182;SDS011;17813;0.000;0.000;2023-10-13T04:21:33;9.10;;;7.27;;
31182;SDS011;17813;0.000;0.000;2023-10-13T04:24:09;10.03;;;7.93;;
31182;SDS011;17813;0.000;0.000;2023-10-13T04:26:50;11.03;;;7.57;;
31182;SDS011;17813;0.000;0.000;2023-10-13T04:29:55;10.40;;;7.97;;
31182;SDS011;17813;0.000;0.000;2023-10-13T04:32:42;11.00;;;7.70;;
31182;SDS011;17813;0.000;0.000;2023-10-13T04:35:34;8.20;;;7.03;;
31182;SDS011;17813;0.000;0.000;2023-10-13T04:38:13;8.63;;;7.23;;
31182;SDS011;17813;0.000;0.000;2023-10-13T04:40:54;8.70;;;7.40;;
31182;SDS011;17813;0.000;0.000;2023-10-13T04:43:45;8.83;;;7.27;;
31182;SDS011;17813;0.000;0.000;2023-10-13T04:46:27;8.67;;;7.73;;
31182;SDS011;17813;0.000;0.000;2023-10-13T04:49:16;9.27;;;7.47;;
31182;SDS011;17813;0.000;0.000;2023-10-13T04:51:55;9.70;;;7.93;;
31182;SDS011;17813;0.000;0.000;2023-10-13T04:54:33;9.60;;;7.40;;
31182;SDS011;17813;0.000;0.000;2023-10-13T04:57:19;8.40;;;7.03;;
31182;SDS011;17813;0.000;0.000;2023-10-13T05:00:17;8.47;;;6.57;;
31182;SDS011;17813;0.000;0.000;2023-10-13T05:02:46;8.00;;;6.67;;
31182;SDS011;17813;0.000;0.000;2023-10-13T05:05:57;8.33;;;6.03;;
31182;SDS011;17813;0.000;0.000;2023-10-13T05:09:22;6.37;;;5.70;;
31182;SDS011;17813;0.000;0.000;2023-10-13T05:12:08;9.63;;;6.47;;
31182;SDS011;17813;0.000;0.000;2023-10-13T05:15:11;9.63;;;6.70;;
31182;SDS011;17813;0.000;0.000;2023-10-13T05:18:15;11.17;;;6.50;;
31182;SDS011;17813;0.000;0.000;2023-10-13T05:21:04;8.83;;;6.63;;
31182;SDS011;17813;0.000;0.000;2023-10-13T05:23:56;8.53;;;5.90;;
31182;SDS011;17813;0.000;0.000;2023-10-13T05:26:54;8.53;;;6.33;;
31182;SDS011;17813;0.000;0.000;2023-10-13T05:29:58;9.23;;;6.67;;
31182;SDS011;17813;0.000;0.000;2023-10-13T05:33:03;7.97;;;6.33;;
31182;SDS011;17813;0.000;0.000;2023-10-13T05:36:11;8.87;;;6.40;;
31182;SDS011;17813;0.000;0.000;2023-10-13T05:39:06;10.60;;;6.50;;
31182;SDS011;17813;0.000;0.000;2023-10-13T05:42:12;8.57;;;6.17;;
31182;SDS011;17813;0.000;0.000;2023-10-13T05:45:15;9.20;;;6.73;;
31182;SDS011;17813;0.000;0.000;2023-10-13T05:47:46;9.07;;;6.40;;
31182;SDS011;17813;0.000;0.000;2023-10-13T05:50:14;10.67;;;6.47;;
31182;SDS011;17813;0.000;0.000;2023-10-13T05:52:56;8.77;;;6.37;;
31182;SDS011;17813;0.000;0.000;2023-10-13T05:55:41;9.10;;;6.87;;
31182;SDS011;17813;0.000;0.000;2023-10-13T05:58:26;7.63;;;6.50;;
31182;SDS011;17813;0.000;0.000;2023-10-13T06:01:12;8.37;;;6.50;;
31182;SDS011;17813;0.000;0.000;2023-10-13T06:04:01;6.63;;;5.97;;
31182;SDS011;17813;0.000;0.000;2023-10-13T06:07:07;8.97;;;6.83;;
31182;SDS011;17813;0.000;0.000;2023-10-13T06:10:11;8.83;;;7.17;;
31182;SDS011;17813;0.000;0.000;2023-10-13T06:13:15;8.30;;;6.80;;
31182;SDS011;17813;0.000;0.000;2023-10-13T06:16:22;7.87;;;6.47;;
31182;SDS011;17813;0.000;0.000;2023-10-13T06:19:40;6.70;;;5.73;;
31182;SDS011;17813;0.000;0.000;2023-10-13T06:22:32;8.53;;;5.70;;
31182;SDS011;17813;0.000;0.000;2023-10-13T06:25:19;7.23;;;6.07;;
31182;SDS011;17813;0.000;0.000;2023-10-13T06:28:11;9.10;;;5.93;;
31182;SDS011;17813;0.000;0.000;2023-10-13T06:30:59;7.50;;;5.60;;
31182;SDS011;17813;0.000;0.000;2023-10-13T06:33:31;7.93;;;5.70;;
31182;SDS011;17813;0.000;0.000;2023-10-13T06:36:03;7.47;;;5.63;;
31182;SDS011;17813;0.000;0.000;2023-10-13T06:38:36;6.50;;;5.27;;
31182;SDS011;17813;0.000;0.000;2023-10-13T06:41:21;8.20;;;5.60;;
31182;SDS011;17813;0.000;0.000;2023-10-13T06:44:19;9.20;;;5.27;;
31182;SDS011;17813;0.000;0.000;2023-10-13T06:46:52;10.40;;;5.50;;
31182;SDS011;17813;0.000;0.000;2023-10-13T06:49:20;10.17;;;5.93;;
31182;SDS011;17813;0.000;0.000;2023-10-13T06:52:12;11.13;;;5.50;;
31182;SDS011;17813;0.000;0.000;2023-10-13T06:54:40;7.83;;;5.60;;
31182;SDS011;17813;0.000;0.000;2023-10-13T06:57:09;7.87;;;5.37;;
31182;SDS011;17813;0.000;0.000;2023-10-13T06:59:44;8.73;;;5.57;;
31182;SDS011;17813;0.000;0.000;2023-10-13T07:02:11;6.80;;;5.70;;
31182;SDS011;17813;0.000;0.000;2023-10-13T07:05:18;8.07;;;5.93;;
31182;SDS011;17813;0.000;0.000;2023-10-13T07:07:45;7.00;;;5.80;;
31182;SDS011;17813;0.000;0.000;2023-10-13T07:10:17;10.20;;;6.27;;
31182;SDS011;17813;0.000;0.000;2023-10-13T07:12:48;11.80;;;6.70;;
31182;SDS011;17813;0.000;0.000;2023-10-13T07:15:34;9.65;;;6.63;;
31182;SDS011;17813;0.000;0.000;2023-10-13T07:18:23;13.87;;;5.97;;
31182;SDS011;17813;0.000;0.000;2023-10-13T07:21:11;8.37;;;5.30;;
31182;SDS011;17813;0.000;0.000;2023-10-13T07:23:46;6.40;;;4.90;;
31182;SDS011;17813;0.000;0.000;2023-10-13T07:26:44;7.73;;;5.67;;
31182;SDS011;17813;0.000;0.000;2023-10-13T07:29:31;9.37;;;5.87;;
31182;SDS011;17813;0.000;0.000;2023-10-13T07:32:08;8.13;;;5.80;;
31182;SDS011;17813;0.000;0.000;2023-10-13T07:34:42;7.80;;;5.30;;
31182;SDS011;17813;0.000;0.000;2023-10-13T07:37:14;6.35;;;5.07;;
31182;SDS011;17813;0.000;0.000;2023-10-13T07:39:59;8.45;;;5.25;;
31182;SDS011;17813;0.000;0.000;2023-10-13T07:42:32;8.70;;;5.32;;
31182;SDS011;17813;0.000;0.000;2023-10-13T07:45:14;7.70;;;5.70;;
31182;SDS011;17813;0.000;0.000;2023-10-13T07:48:05;7.70;;;5.50;;
31182;SDS011;17813;0.000;0.000;2023-10-13T07:50:39;7.17;;;5.40;;
31182;SDS011;17813;0.000;0.000;2023-10-13T07:53:14;7.43;;;5.17;;
31182;SDS011;17813;0.000;0.000;2023-10-13T07:56:02;7.83;;;5.20;;
31182;SDS011;17813;0.000;0.000;2023-10-13T07:58:55;7.60;;;5.57;;
31182;SDS011;17813;0.000;0.000;2023-10-13T08:01:36;5.07;;;4.55;;
31182;SDS011;17813;0.000;0.000;2023-10-13T08:04:10;7.50;;;4.65;;
31182;SDS011;17813;0.000;0.000;2023-10-13T08:06:55;7.33;;;4.87;;
31182;SDS011;17813;0.000;0.000;2023-10-13T08:09:30;7.70;;;4.90;;
31182;SDS011;17813;0.000;0.000;2023-10-13T08:12:28;5.95;;;4.60;;
31182;SDS011;17813;0.000;0.000;2023-10-13T08:15:06;7.93;;;5.40;;
31182;SDS011;17813;0.000;0.000;2023-10-13T08:18:05;6.00;;;4.30;;
31182;SDS011;17813;0.000;0.000;2023-10-13T08:21:01;6.95;;;5.03;;
31182;SDS011;17813;0.000;0.000;2023-10-13T08:23:32;6.25;;;4.50;;
31182;SDS011;17813;0.000;0.000;2023-10-13T08:26:18;8.38;;;4.95;;
31182;SDS011;17813;0.000;0.000;2023-10-13T08:29:14;7.60;;;5.15;;
31182;SDS011;17813;0.000;0.000;2023-10-13T08:32:02;9.40;;;4.78;;
31182;SDS011;17813;0.000;0.000;2023-10-13T08:34:35;5.22;;;4.72;;
31182;SDS011;17813;0.000;0.000;2023-10-13T08:37:33;7.20;;;4.80;;
31182;SDS011;17813;0.000;0.000;2023-10-13T08:40:13;7.13;;;5.03;;
31182;SDS011;17813;0.000;0.000;2023-10-13T08:43:18;5.37;;;4.47;;
31182;SDS011;17813;0.000;0.000;2023-10-13T08:45:49;6.55;;;4.93;;
31182;SDS011;17813;0.000;0.000;2023-10-13T08:48:46;8.68;;;4.97;;
31182;SDS011;17813;0.000;0.000;2023-10-13T08:51:35;7.57;;;5.22;;
31182;SDS011;17813;0.000;0.000;2023-10-13T08:54:14;6.38;;;4.53;;
31182;SDS011;17813;0.000;0.000;2023-10-13T08:56:48;9.05;;;4.93;;
31182;SDS011;17813;0.000;0.000;2023-10-13T08:59:32;8.85;;;4.78;;
31182;SDS011;17813;0.000;0.000;2023-10-13T09:02:24;7.88;;;4.90;;
31182;SDS011;17813;0.000;0.000;2023-10-13T09:05:31;6.35;;;4.85;;
31182;SDS011;17813;0.000;0.000;2023-10-13T09:08:27;8.43;;;4.80;;
31182;SDS011;17813;0.000;0.000;2023-10-13T09:11:39;6.78;;;4.68;;
31182;SDS011;17813;0.000;0.000;2023-10-13T09:14:37;7.13;;;4.60;;
31182;SDS011;17813;0.000;0.000;2023-10-13T09:17:24;7.70;;;4.63;;
31182;SDS011;17813;0.000;0.000;2023-10-13T09:20:01;6.43;;;4.57;;
31182;SDS011;17813;0.000;0.000;2023-10-13T09:25:28;6.82;;;4.32;;
31182;SDS011;17813;0.000;0.000;2023-10-13T09:28:02;8.38;;;4.50;;
31182;SDS011;17813;0.000;0.000;2023-10-13T09:31:03;7.72;;;4.50;;
31182;SDS011;17813;0.000;0.000;2023-10-13T09:33:37;7.93;;;4.38;;
31182;SDS011;17813;0.000;0.000;2023-10-13T09:36:27;6.95;;;4.32;;
31182;SDS011;17813;0.000;0.000;2023-10-13T09:38:56;10.27;;;4.60;;
31182;SDS011;17813;0.000;0.000;2023-10-13T09:42:07;7.00;;;4.10;;
31182;SDS011;17813;0.000;0.000;2023-10-13T09:45:02;8.98;;;4.18;;
31182;SDS011;17813;0.000;0.000;2023-10-13T09:47:36;7.28;;;4.28;;
31182;SDS011;17813;0.000;0.000;2023-10-13T09:50:08;6.25;;;4.10;;
31182;SDS011;17813;0.000;0.000;2023-10-13T09:52:49;7.63;;;4.10;;
31182;SDS011;17813;0.000;0.000;2023-10-13T09:55:29;6.68;;;4.07;;
31182;SDS011;17813;0.000;0.000;2023-10-13T09:58:07;7.90;;;4.20;;
31182;SDS011;17813;0.000;0.000;2023-10-13T10:01:06;8.25;;;4.25;;
31182;SDS011;17813;0.000;0.000;2023-10-13T10:03:52;5.07;;;3.72;;
31182;SDS011;17813;0.000;0.000;2023-10-13T10:06:57;7.28;;;3.63;;
31182;SDS011;17813;0.000;0.000;2023-10-13T10:09:29;6.68;;;3.97;;
31182;SDS011;17813;0.000;0.000;2023-10-13T10:15:30;7.47;;;4.05;;
31182;SDS011;17813;0.000;0.000;2023-10-13T10:18:01;6.57;;;3.75;;
31182;SDS011;17813;0.000;0.000;2023-10-13T10:20:37;6.28;;;4.10;;
31182;SDS011;17813;0.000;0.000;2023-10-13T10:23:30;7.35;;;3.65;;
31182;SDS011;17813;0.000;0.000;2023-10-13T10:26:27;8.43;;;4.35;;
31182;SDS011;17813;0.000;0.000;2023-10-13T10:29:10;8.13;;;4.45;;
31182;SDS011;17813;0.000;0.000;2023-10-13T10:31:41;8.45;;;3.95;;
31182;SDS011;17813;0.000;0.000;2023-10-13T10:34:16;5.88;;;4.05;;
31182;SDS011;17813;0.000;0.000;2023-10-13T10:36:53;8.00;;;3.75;;
31182;SDS011;17813;0.000;0.000;2023-10-13T10:39:33;7.40;;;4.03;;
31182;SDS011;17813;0.000;0.000;2023-10-13T10:42:11;9.73;;;4.20;;
31182;SDS011;17813;0.000;0.000;2023-10-13T10:45:11;8.20;;;4.00;;
31182;SDS011;17813;0.000;0.000;2023-10-13T10:47:38;8.48;;;4.15;;
31182;SDS011;17813;0.000;0.000;2023-10-13T10:50:34;13.45;;;4.43;;
31182;SDS011;17813;0.000;0.000;2023-10-13T11:00:29;7.78;;;4.18;;
31182;SDS011;17813;0.000;0.000;2023-10-13T11:03:18;9.68;;;4.28;;
31182;SDS011;17813;0.000;0.000;2023-10-13T11:05:56;8.20;;;3.97;;
31182;SDS011;17813;0.000;0.000;2023-10-13T11:12:14;9.05;;;4.07;;
31182;SDS011;17813;0.000;0.000;2023-10-13T11:47:19;10.23;;;4.60;;
31182;SDS011;17813;0.000;0.000;2023-10-13T12:05:52;7.55;;;4.13;;
31182;SDS011;17813;0.000;0.000;2023-10-13T12:34:04;9.55;;;4.22;;
31182;SDS011;17813;0.000;0.000;2023-10-13T12:37:04;5.95;;;4.15;;
31182;SDS011;17813;0.000;0.000;2023-10-13T12:40:34;7.07;;;4.10;;
31182;SDS011;17813;0.000;0.000;2023-10-13T12:58:30;6.50;;;4.07;;
31182;SDS011;17813;0.000;0.000;2023-10-13T13:01:01;6.43;;;4.57;;
31182;SDS011;17813;0.000;0.000;2023-10-13T13:03:53;6.82;;;4.30;;
31182;SDS011;17813;0.000;0.000;2023-10-13T13:14:28;7.13;;;4.30;;
31182;SDS011;17813;0.000;0.000;2023-10-13T13:17:09;5.43;;;4.47;;
31182;SDS011;17813;0.000;0.000;2023-10-13T13:31:22;7.45;;;5.10;;
31182;SDS011;17813;0.000;0.000;2023-10-13T13:33:58;7.07;;;4.55;;
31182;SDS011;17813;0.000;0.000;2023-10-13T13:36:25;7.22;;;4.72;;
31182;SDS011;17813;0.000;0.000;2023-10-13T14:22:20;5.65;;;3.67;;
31182;SDS011;17813;0.000;0.000;2023-10-13T14:35:56;9.80;;;4.20;;
31182;SDS011;17813;0.000;0.000;2023-10-13T14:48:43;6.43;;;3.78;;
31182;SDS011;17813;0.000;0.000;2023-10-13T14:51:26;8.85;;;3.80;;
31182;SDS011;17813;0.000;0.000;2023-10-13T14:53:54;6.72;;;3.65;;
31182;SDS011;17813;0.000;0.000;2023-10-13T15:13:56;6.60;;;4.00;;
31182;SDS011;17813;0.000;0.000;2023-10-13T15:20:15;5.97;;;3.63;;
31182;SDS011;17813;0.000;0.000;2023-10-13T15:26:52;10.32;;;4.30;;
31182;SDS011;17813;0.000;0.000;2023-10-13T15:43:32;7.40;;;4.88;;
31182;SDS011;17813;0.000;0.000;2023-10-13T15:46:00;6.00;;;4.50;;
31182;SDS011;17813;0.000;0.000;2023-10-13T15:48:44;5.82;;;4.05;;
31182;SDS011;17813;0.000;0.000;2023-10-13T15:57:35;5.10;;;3.90;;
31182;SDS011;17813;0.000;0.000;2023-10-13T16:00:10;9.23;;;4.00;;
31182;SDS011;17813;0.000;0.000;2023-10-13T16:19:29;5.50;;;4.05;;
31182;SDS011;17813;0.000;0.000;2023-10-13T16:22:21;5.28;;;3.97;;
31182;SDS011;17813;0.000;0.000;2023-10-13T16:41:28;4.60;;;3.83;;
31182;SDS011;17813;0.000;0.000;2023-10-13T16:54:14;5.00;;;4.22;;
31182;SDS011;17813;0.000;0.000;2023-10-13T16:57:15;5.90;;;4.32;;
31182;SDS011;17813;0.000;0.000;2023-10-13T16:59:47;6.18;;;4.68;;
31182;SDS011;17813;0.000;0.000;2023-10-13T17:14:42;5.50;;;4.30;;
31182;SDS011;17813;0.000;0.000;2023-10-13T17:33:52;7.88;;;4.13;;
31182;SDS011;17813;0.000;0.000;2023-10-13T17:36:41;7.82;;;4.65;;
31182;SDS011;17813;0.000;0.000;2023-10-13T17:39:12;6.63;;;5.00;;
31182;SDS011;17813;0.000;0.000;2023-10-13T17:41:43;11.40;;;7.47;;
31182;SDS011;17813;0.000;0.000;2023-10-13T18:04:34;8.40;;;5.88;;
31182;SDS011;17813;0.000;0.000;2023-10-13T18:07:05;9.57;;;6.32;;
31182;SDS011;17813;0.000;0.000;2023-10-13T18:10:04;8.88;;;5.32;;
31182;SDS011;17813;0.000;0.000;2023-10-13T18:12:35;7.28;;;5.13;;
31182;SDS011;17813;0.000;0.000;2023-10-13T18:15:12;6.70;;;4.47;;
31182;SDS011;17813;0.000;0.000;2023-10-13T18:39:48;5.80;;;3.92;;
31182;SDS011;17813;0.000;0.000;2023-10-13T18:51:43;7.75;;;4.40;;
31182;SDS011;17813;0.000;0.000;2023-10-13T18:54:33;6.20;;;4.30;;
31182;SDS011;17813;0.000;0.000;2023-10-13T18:57:09;6.65;;;4.70;;
31182;SDS011;17813;0.000;0.000;2023-10-13T18:59:44;6.77;;;4.47;;
31182;SDS011;17813;0.000;0.000;2023-10-13T19:25:42;6.03;;;4.40;;
31182;SDS011;17813;0.000;0.000;2023-10-13T19:28:27;5.00;;;4.30;;
31182;SDS011;17813;0.000;0.000;2023-10-13T19:41:22;5.80;;;4.30;;
31182;SDS011;17813;0.000;0.000;2023-10-13T19:43:58;5.50;;;3.90;;
31182;SDS011;17813;0.000;0.000;2023-10-13T19:50:26;4.57;;;3.70;;
31182;SDS011;17813;0.000;0.000;2023-10-13T19:53:07;9.10;;;4.00;;
31182;SDS011;17813;0.000;0.000;2023-10-13T19:55:59;7.10;;;3.97;;
31182;SDS011;17813;0.000;0.000;2023-10-13T19:58:45;5.93;;;3.73;;
31182;SDS011;17813;0.000;0.000;2023-10-13T20:10:30;5.60;;;3.73;;
31182;SDS011;17813;0.000;0.000;2023-10-13T20:13:08;7.43;;;3.83;;
31182;SDS011;17813;0.000;0.000;2023-10-13T20:22:15;8.30;;;4.70;;
31182;SDS011;17813;0.000;0.000;2023-10-13T20:24:49;9.10;;;3.90;;
31182;SDS011;17813;0.000;0.000;2023-10-13T20:27:37;5.47;;;3.47;;
31182;SDS011;17813;0.000;0.000;2023-10-13T20:30:18;7.40;;;3.83;;
31182;SDS011;17813;0.000;0.000;2023-10-13T20:32:47;7.27;;;3.90;;
31182;SDS011;17813;0.000;0.000;2023-10-13T20:35:22;7.27;;;3.80;;
31182;SDS011;17813;0.000;0.000;2023-10-13T20:37:51;8.03;;;3.60;;
31182;SDS011;17813;0.000;0.000;2023-10-13T20:40:19;5.17;;;3.70;;
31182;SDS011;17813;0.000;0.000;2023-10-13T20:42:47;6.00;;;3.50;;
31182;SDS011;17813;0.000;0.000;2023-10-13T20:45:19;6.37;;;3.53;;
31182;SDS011;17813;0.000;0.000;2023-10-13T20:47:53;5.40;;;3.27;;
31182;SDS011;17813;0.000;0.000;2023-10-13T20:50:24;5.60;;;3.43;;
31182;SDS011;17813;0.000;0.000;2023-10-13T20:52:56;5.85;;;3.10;;
31182;SDS011;17813;0.000;0.000;2023-10-13T20:55:30;4.95;;;3.38;;
31182;SDS011;17813;0.000;0.000;2023-10-13T20:58:21;5.20;;;3.37;;
31182;SDS011;17813;0.000;0.000;2023-10-13T21:00:55;4.80;;;3.00;;
31182;SDS011;17813;0.000;0.000;2023-10-13T21:03:40;9.45;;;3.40;;
31182;SDS011;17813;0.000;0.000;2023-10-13T21:10:28;3.85;;;2.92;;
31182;SDS011;17813;0.000;0.000;2023-10-13T21:12:56;5.07;;;2.90;;
31182;SDS011;17813;0.000;0.000;2023-10-13T21:15:26;5.50;;;3.20;;
31182;SDS011;17813;0.000;0.000;2023-10-13T21:17:56;5.20;;;3.13;;
31182;SDS011;17813;0.000;0.000;2023-10-13T21:39:36;5.17;;;3.00;;
31182;SDS011;17813;0.000;0.000;2023-10-13T21:42:08;5.77;;;3.20;;
31182;SDS011;17813;0.000;0.000;2023-10-13T21:44:41;5.22;;;2.80;;
31182;SDS011;17813;0.000;0.000;2023-10-13T21:51:00;3.97;;;3.00;;
31182;SDS011;17813;0.000;0.000;2023-10-13T21:53:32;6.27;;;2.90;;
31182;SDS011;17813;0.000;0.000;2023-10-13T21:59:52;6.05;;;3.20;;
31182;SDS011;17813;0.000;0.000;2023-10-13T22:06:14;4.60;;;2.75;;
31182;SDS011;17813;0.000;0.000;2023-10-13T22:08:45;3.78;;;2.88;;
31182;SDS011;17813;0.000;0.000;2023-10-13T22:11:23;6.75;;;3.05;;
31182;SDS011;17813;0.000;0.000;2023-10-13T22:13:50;5.43;;;2.33;;
31182;SDS011;17813;0.000;0.000;2023-10-13T22:20:24;5.78;;;2.47;;
31182;SDS011;17813;0.000;0.000;2023-10-13T22:28:00;5.13;;;2.90;;
31182;SDS011;17813;0.000;0.000;2023-10-13T22:39:21;6.38;;;2.70;;
31182;SDS011;17813;0.000;0.000;2023-10-13T22:41:51;6.63;;;2.97;;
31182;SDS011;17813;0.000;0.000;2023-10-13T22:47:26;5.47;;;2.70;;
31182;SDS011;17813;0.000;0.000;2023-10-13T22:53:56;5.18;;;2.95;;
31182;SDS011;17813;0.000;0.000;2023-10-13T22:56:26;4.38;;;2.92;;
31182;SDS011;17813;0.000;0.000;2023-10-13T23:02:42;5.50;;;2.90;;
31182;SDS011;17813;0.000;0.000;2023-10-13T23:05:34;6.32;;;2.70;;
31182;SDS011;17813;0.000;0.000;2023-10-13T23:08:22;4.83;;;2.83;;
31182;SDS011;17813;0.000;0.000;2023-10-13T23:14:54;5.00;;;3.00;;
31182;SDS011;17813;0.000;0.000;2023-10-13T23:17:22;4.33;;;2.83;;
31182;SDS011;17813;0.000;0.000;2023-10-13T23:19:53;3.23;;;2.60;;
31182;SDS011;17813;0.000;0.000;2023-10-13T23:28:58;5.67;;;2.90;;
31182;SDS011;17813;0.000;0.000;2023-10-13T23:35:13;5.47;;;3.03;;
31182;SDS011;17813;0.000;0.000;2023-10-13T23:41:28;6.87;;;3.10;;
31182;SDS011;17813;0.000;0.000;2023-10-13T23:43:56;5.40;;;3.10;;
31182;SDS011;17813;0.000;0.000;2023-10-13T23:46:25;6.40;;;2.90;;
31182;SDS011;17813;0.000;0.000;2023-10-13T23:48:54;5.77;;;2.90;;
31182;SDS011;17813;0.000;0.000;2023-10-13T23:51:21;5.40;;;2.87;;
31182;SDS011;17813;0.000;0.000;2023-10-13T23:56:47;5.82;;;3.10;;
